VLG5ST GCFV-LEZL
Flight info
| Callsign | VLG5ST |
|---|---|
| Flight time | 1h 36m |
| Altitude | 38000 |
| Route | KORAL UN871 SONSO DCT NIRAL UN871 ADUBI DCT VJF |
| Aircraft | A320/M-SDE3FGHIRWY/LB1 |
Departure
| Time | 2026-04-23 09:15 |
|---|---|
| Airport | Fuerteventura Airport (GCFV) |
Arrival
| Time | 2026-04-23 10:51 |
|---|---|
| Airport | Seville Airport (LEZL) |
| Time | Latitude | Longitude | Altitude | Speed | Heading |
|---|---|---|---|---|---|
| 2026-04-23 08:55 | 28.45271 | -13.86839 | 99 ft | 0 kts | 271° |
| 2026-04-23 09:05 | 28.45270 | -13.86829 | 100 ft | 4 kts | 271° |
| 2026-04-23 09:05 | 28.45271 | -13.86799 | 99 ft | 4 kts | 266° |
| 2026-04-23 09:05 | 28.45274 | -13.86768 | 99 ft | 4 kts | 255° |
| 2026-04-23 09:06 | 28.45284 | -13.86743 | 98 ft | 4 kts | 214° |
| 2026-04-23 09:06 | 28.45293 | -13.86737 | 99 ft | 0 kts | 181° |
| 2026-04-23 09:09 | 28.45292 | -13.86737 | 99 ft | 1 kts | 181° |
| 2026-04-23 09:10 | 28.45274 | -13.86738 | 100 ft | 4 kts | 181° |
| 2026-04-23 09:10 | 28.45186 | -13.86741 | 99 ft | 9 kts | 181° |
| 2026-04-23 09:10 | 28.45114 | -13.86743 | 99 ft | 12 kts | 181° |
| 2026-04-23 09:11 | 28.45022 | -13.86746 | 99 ft | 15 kts | 181° |
| 2026-04-23 09:11 | 28.44912 | -13.86749 | 100 ft | 17 kts | 181° |
| 2026-04-23 09:11 | 28.44771 | -13.86754 | 89 ft | 25 kts | 181° |
| 2026-04-23 09:11 | 28.44570 | -13.86758 | 78 ft | 32 kts | 182° |
| 2026-04-23 09:12 | 28.44346 | -13.86768 | 68 ft | 30 kts | 181° |
| 2026-04-23 09:12 | 28.44173 | -13.86773 | 62 ft | 26 kts | 181° |
| 2026-04-23 09:12 | 28.44068 | -13.86725 | 55 ft | 14 kts | 78° |
| 2026-04-23 09:12 | 28.44026 | -13.86613 | 51 ft | 19 kts | 155° |
| 2026-04-23 09:13 | 28.43872 | -13.86615 | 45 ft | 25 kts | 180° |
| 2026-04-23 09:13 | 28.43681 | -13.86619 | 39 ft | 30 kts | 183° |
| 2026-04-23 09:13 | 28.43461 | -13.86627 | 35 ft | 33 kts | 181° |
| 2026-04-23 09:13 | 28.43313 | -13.86603 | 33 ft | 17 kts | 126° |
| 2026-04-23 09:14 | 28.43312 | -13.86460 | 34 ft | 18 kts | 71° |
| 2026-04-23 09:14 | 28.43353 | -13.86442 | 34 ft | 6 kts | 357° |
| 2026-04-23 09:14 | 28.43386 | -13.86439 | 34 ft | 11 kts | 5° |
| 2026-04-23 09:14 | 28.43630 | -13.86429 | 32 ft | 70 kts | 1° |
| 2026-04-23 09:15 | 28.44333 | -13.86410 | 49 ft | 127 kts | 1° |
| 2026-04-23 09:15 | 28.45354 | -13.86378 | 174 ft | 160 kts | 2° |
| 2026-04-23 09:15 | 28.46433 | -13.86327 | 872 ft | 155 kts | 5° |
| 2026-04-23 09:15 | 28.47480 | -13.85952 | 1471 ft | 164 kts | 28° |
| 2026-04-23 09:16 | 28.48530 | -13.85281 | 1850 ft | 183 kts | 28° |
| 2026-04-23 09:16 | 28.49720 | -13.84582 | 2197 ft | 204 kts | 26° |
| 2026-04-23 09:16 | 28.51041 | -13.83821 | 2595 ft | 224 kts | 26° |
| 2026-04-23 09:16 | 28.52508 | -13.82969 | 3125 ft | 247 kts | 26° |
| 2026-04-23 09:17 | 28.54064 | -13.82062 | 4000 ft | 256 kts | 26° |
| 2026-04-23 09:17 | 28.55670 | -13.81122 | 4942 ft | 262 kts | 26° |
| 2026-04-23 09:17 | 28.57309 | -13.80162 | 5842 ft | 269 kts | 25° |
| 2026-04-23 09:17 | 28.58994 | -13.79177 | 6709 ft | 276 kts | 25° |
| 2026-04-23 09:18 | 28.60730 | -13.78166 | 7513 ft | 285 kts | 25° |
| 2026-04-23 09:18 | 28.62521 | -13.77121 | 8313 ft | 293 kts | 25° |
| 2026-04-23 09:18 | 28.64353 | -13.76047 | 9101 ft | 300 kts | 25° |
| 2026-04-23 09:18 | 28.66233 | -13.74943 | 9863 ft | 307 kts | 25° |
| 2026-04-23 09:19 | 28.68173 | -13.73804 | 10404 ft | 324 kts | 25° |
| 2026-04-23 09:19 | 28.70258 | -13.72611 | 10672 ft | 347 kts | 23° |
| 2026-04-23 09:19 | 28.72489 | -13.71434 | 11161 ft | 359 kts | 22° |
| 2026-04-23 09:19 | 28.74797 | -13.70269 | 11857 ft | 366 kts | 21° |
| 2026-04-23 09:20 | 28.77147 | -13.69101 | 12557 ft | 371 kts | 21° |
| 2026-04-23 09:20 | 28.79530 | -13.67916 | 13259 ft | 376 kts | 21° |
| 2026-04-23 09:20 | 28.81907 | -13.66724 | 13948 ft | 380 kts | 21° |
| 2026-04-23 09:20 | 28.84334 | -13.65497 | 14626 ft | 384 kts | 21° |
| 2026-04-23 09:21 | 28.86788 | -13.64250 | 15269 ft | 388 kts | 22° |
| 2026-04-23 09:21 | 28.89263 | -13.62988 | 15900 ft | 391 kts | 22° |
| 2026-04-23 09:21 | 28.91758 | -13.61710 | 16531 ft | 395 kts | 22° |
| 2026-04-23 09:21 | 28.94279 | -13.60414 | 17158 ft | 399 kts | 22° |
| 2026-04-23 09:22 | 28.96844 | -13.59177 | 17766 ft | 401 kts | 19° |
| 2026-04-23 09:22 | 28.99465 | -13.58045 | 18362 ft | 405 kts | 17° |
| 2026-04-23 09:22 | 29.02131 | -13.56970 | 18956 ft | 408 kts | 16° |
| 2026-04-23 09:22 | 29.04824 | -13.55908 | 19551 ft | 412 kts | 16° |
| 2026-04-23 09:23 | 29.07544 | -13.54830 | 19955 ft | 415 kts | 16° |
| 2026-04-23 09:23 | 29.10270 | -13.53730 | 20063 ft | 416 kts | 17° |
| 2026-04-23 09:23 | 29.12977 | -13.52543 | 20084 ft | 418 kts | 22° |
| 2026-04-23 09:23 | 29.15500 | -13.50872 | 20080 ft | 421 kts | 34° |
| 2026-04-23 09:24 | 29.17731 | -13.48708 | 20084 ft | 422 kts | 45° |
| 2026-04-23 09:24 | 29.19610 | -13.46127 | 20084 ft | 423 kts | 55° |
| 2026-04-23 09:24 | 29.21286 | -13.43366 | 20080 ft | 423 kts | 55° |
| 2026-04-23 09:24 | 29.22970 | -13.40604 | 20081 ft | 423 kts | 55° |
| 2026-04-23 09:25 | 29.24656 | -13.37846 | 20080 ft | 423 kts | 55° |
| 2026-04-23 09:25 | 29.26343 | -13.35086 | 20081 ft | 423 kts | 55° |
| 2026-04-23 09:25 | 29.28027 | -13.32328 | 20083 ft | 423 kts | 55° |
| 2026-04-23 09:25 | 29.29712 | -13.29565 | 20080 ft | 423 kts | 55° |
| 2026-04-23 09:26 | 29.31396 | -13.26806 | 20079 ft | 423 kts | 55° |
| 2026-04-23 09:26 | 29.33083 | -13.24043 | 20082 ft | 423 kts | 55° |
| 2026-04-23 09:26 | 29.34769 | -13.21285 | 20083 ft | 423 kts | 55° |
| 2026-04-23 09:26 | 29.36456 | -13.18524 | 20078 ft | 422 kts | 55° |
| 2026-04-23 09:27 | 29.38137 | -13.15769 | 20072 ft | 422 kts | 55° |
| 2026-04-23 09:27 | 29.39820 | -13.13009 | 20080 ft | 423 kts | 55° |
| 2026-04-23 09:27 | 29.41509 | -13.10227 | 20595 ft | 426 kts | 55° |
| 2026-04-23 09:27 | 29.43209 | -13.07423 | 21161 ft | 429 kts | 55° |
| 2026-04-23 09:28 | 29.44919 | -13.04603 | 21694 ft | 433 kts | 55° |
| 2026-04-23 09:28 | 29.46644 | -13.01755 | 22192 ft | 436 kts | 55° |
| 2026-04-23 09:28 | 29.48378 | -12.98889 | 22692 ft | 439 kts | 55° |
| 2026-04-23 09:28 | 29.50130 | -12.95998 | 23156 ft | 443 kts | 55° |
| 2026-04-23 09:29 | 29.51895 | -12.93089 | 23629 ft | 446 kts | 55° |
| 2026-04-23 09:29 | 29.53673 | -12.90157 | 24103 ft | 449 kts | 55° |
| 2026-04-23 09:29 | 29.55436 | -12.87247 | 24541 ft | 452 kts | 55° |
| 2026-04-23 09:29 | 29.57238 | -12.84270 | 24959 ft | 455 kts | 55° |
| 2026-04-23 09:30 | 29.59048 | -12.81271 | 25383 ft | 459 kts | 55° |
| 2026-04-23 09:30 | 29.60871 | -12.78247 | 25799 ft | 462 kts | 54° |
| 2026-04-23 09:30 | 29.62706 | -12.75203 | 26196 ft | 466 kts | 54° |
| 2026-04-23 09:30 | 29.64559 | -12.72130 | 26572 ft | 469 kts | 54° |
| 2026-04-23 09:31 | 29.66420 | -12.69037 | 26950 ft | 472 kts | 54° |
| 2026-04-23 09:31 | 29.68294 | -12.65917 | 27329 ft | 476 kts | 54° |
| 2026-04-23 09:31 | 29.70180 | -12.62779 | 27685 ft | 479 kts | 54° |
| 2026-04-23 09:31 | 29.72081 | -12.59615 | 28046 ft | 482 kts | 54° |
| 2026-04-23 09:32 | 29.73992 | -12.56432 | 28399 ft | 485 kts | 54° |
| 2026-04-23 09:32 | 29.75910 | -12.53214 | 28746 ft | 489 kts | 54° |
| 2026-04-23 09:32 | 29.77827 | -12.49974 | 29092 ft | 492 kts | 54° |
| 2026-04-23 09:32 | 29.79760 | -12.46695 | 29439 ft | 495 kts | 54° |
| 2026-04-23 09:33 | 29.81697 | -12.43404 | 29783 ft | 498 kts | 54° |
| 2026-04-23 09:33 | 29.83650 | -12.40088 | 30118 ft | 502 kts | 54° |
| 2026-04-23 09:33 | 29.85611 | -12.36755 | 30434 ft | 505 kts | 54° |
| 2026-04-23 09:33 | 29.87589 | -12.33396 | 30738 ft | 508 kts | 54° |
| 2026-04-23 09:34 | 29.89581 | -12.30022 | 31040 ft | 511 kts | 54° |
| 2026-04-23 09:34 | 29.91586 | -12.26622 | 31345 ft | 514 kts | 54° |
| 2026-04-23 09:34 | 29.93600 | -12.23203 | 31697 ft | 516 kts | 54° |
| 2026-04-23 09:34 | 29.95606 | -12.19782 | 32144 ft | 515 kts | 54° |
| 2026-04-23 09:35 | 29.97612 | -12.16359 | 32555 ft | 515 kts | 54° |
| 2026-04-23 09:35 | 29.99614 | -12.12941 | 32967 ft | 515 kts | 53° |
| 2026-04-23 09:35 | 30.01796 | -12.09673 | 33360 ft | 513 kts | 45° |
| 2026-04-23 09:35 | 30.04301 | -12.06746 | 33737 ft | 511 kts | 40° |
| 2026-04-23 09:36 | 30.06866 | -12.03895 | 34127 ft | 512 kts | 40° |
| 2026-04-23 09:36 | 30.09427 | -12.01042 | 34516 ft | 512 kts | 40° |
| 2026-04-23 09:36 | 30.11990 | -11.98177 | 34844 ft | 514 kts | 40° |
| 2026-04-23 09:36 | 30.14569 | -11.95292 | 35107 ft | 517 kts | 40° |
| 2026-04-23 09:37 | 30.17160 | -11.92390 | 35373 ft | 520 kts | 40° |
| 2026-04-23 09:37 | 30.19756 | -11.89476 | 35659 ft | 522 kts | 40° |
| 2026-04-23 09:37 | 30.22364 | -11.86544 | 35931 ft | 524 kts | 39° |
| 2026-04-23 09:37 | 30.24978 | -11.83601 | 36169 ft | 526 kts | 40° |
| 2026-04-23 09:38 | 30.27607 | -11.80637 | 36410 ft | 529 kts | 39° |
| 2026-04-23 09:38 | 30.30244 | -11.77666 | 36662 ft | 530 kts | 39° |
| 2026-04-23 09:38 | 30.32894 | -11.74685 | 36932 ft | 531 kts | 39° |
| 2026-04-23 09:38 | 30.35546 | -11.71697 | 37227 ft | 532 kts | 39° |
| 2026-04-23 09:39 | 30.38195 | -11.68706 | 37522 ft | 533 kts | 39° |
| 2026-04-23 09:39 | 30.40815 | -11.65745 | 37773 ft | 534 kts | 39° |
| 2026-04-23 09:39 | 30.43472 | -11.62740 | 37991 ft | 535 kts | 39° |
| 2026-04-23 09:40 | 30.48800 | -11.56713 | 38044 ft | 535 kts | 39° |
| 2026-04-23 09:40 | 30.54129 | -11.50685 | 38053 ft | 534 kts | 39° |
| 2026-04-23 09:41 | 30.59439 | -11.44658 | 38054 ft | 533 kts | 39° |
| 2026-04-23 09:41 | 30.64723 | -11.38638 | 38054 ft | 532 kts | 39° |
| 2026-04-23 09:42 | 30.69998 | -11.32634 | 38057 ft | 531 kts | 39° |
| 2026-04-23 09:42 | 30.75276 | -11.26621 | 38067 ft | 531 kts | 40° |
| 2026-04-23 09:43 | 30.80541 | -11.20607 | 38068 ft | 530 kts | 40° |
| 2026-04-23 09:43 | 30.85797 | -11.14604 | 38069 ft | 529 kts | 40° |
| 2026-04-23 09:44 | 30.91037 | -11.08596 | 38066 ft | 528 kts | 40° |
| 2026-04-23 09:44 | 30.96224 | -11.02639 | 38061 ft | 527 kts | 40° |
| 2026-04-23 09:45 | 31.01438 | -10.96641 | 38064 ft | 526 kts | 40° |
| 2026-04-23 09:45 | 31.06644 | -10.90652 | 38067 ft | 525 kts | 40° |
| 2026-04-23 09:46 | 31.11836 | -10.84654 | 38069 ft | 525 kts | 40° |
| 2026-04-23 09:46 | 31.17015 | -10.78667 | 38070 ft | 524 kts | 40° |
| 2026-04-23 09:47 | 31.22184 | -10.72682 | 38069 ft | 523 kts | 40° |
| 2026-04-23 09:47 | 31.27340 | -10.66700 | 38070 ft | 522 kts | 40° |
| 2026-04-23 09:48 | 31.32487 | -10.60732 | 38071 ft | 521 kts | 40° |
| 2026-04-23 09:48 | 31.37618 | -10.54771 | 38071 ft | 519 kts | 41° |
| 2026-04-23 09:49 | 31.42734 | -10.48820 | 38073 ft | 518 kts | 41° |
| 2026-04-23 09:49 | 31.47834 | -10.42867 | 38077 ft | 517 kts | 41° |
| 2026-04-23 09:50 | 31.52920 | -10.36916 | 38076 ft | 516 kts | 41° |
| 2026-04-23 09:50 | 31.57960 | -10.31019 | 38082 ft | 515 kts | 41° |
| 2026-04-23 09:51 | 31.63028 | -10.25087 | 38081 ft | 514 kts | 41° |
| 2026-04-23 09:51 | 31.68067 | -10.19160 | 38078 ft | 513 kts | 42° |
| 2026-04-23 09:52 | 31.73097 | -10.13228 | 38077 ft | 511 kts | 42° |
| 2026-04-23 09:52 | 31.78119 | -10.07323 | 38080 ft | 510 kts | 42° |
| 2026-04-23 09:53 | 31.83131 | -10.01418 | 38075 ft | 509 kts | 42° |
| 2026-04-23 09:53 | 31.88126 | -9.95516 | 38075 ft | 509 kts | 42° |
| 2026-04-23 09:54 | 31.93110 | -9.89614 | 38076 ft | 508 kts | 42° |
| 2026-04-23 09:54 | 31.98091 | -9.83710 | 38072 ft | 508 kts | 42° |
| 2026-04-23 09:55 | 32.03068 | -9.77800 | 38071 ft | 508 kts | 42° |
| 2026-04-23 09:55 | 32.08038 | -9.71885 | 38072 ft | 507 kts | 42° |
| 2026-04-23 09:56 | 32.12998 | -9.65973 | 38072 ft | 507 kts | 42° |
| 2026-04-23 09:56 | 32.17955 | -9.60062 | 38072 ft | 507 kts | 42° |
| 2026-04-23 09:57 | 32.22874 | -9.54175 | 38073 ft | 506 kts | 42° |
| 2026-04-23 09:57 | 32.27851 | -9.48205 | 38072 ft | 506 kts | 42° |
| 2026-04-23 09:58 | 32.32754 | -9.42325 | 38073 ft | 506 kts | 42° |
| 2026-04-23 09:58 | 32.37692 | -9.36400 | 38072 ft | 505 kts | 43° |
| 2026-04-23 09:59 | 32.42619 | -9.30479 | 38067 ft | 505 kts | 43° |
| 2026-04-23 09:59 | 32.47541 | -9.24539 | 38065 ft | 505 kts | 43° |
| 2026-04-23 10:00 | 32.52448 | -9.18602 | 38065 ft | 504 kts | 43° |
| 2026-04-23 10:00 | 32.57360 | -9.12659 | 38064 ft | 504 kts | 43° |
| 2026-04-23 10:01 | 32.62266 | -9.06731 | 38065 ft | 504 kts | 43° |
| 2026-04-23 10:01 | 32.67172 | -9.00786 | 38065 ft | 503 kts | 43° |
| 2026-04-23 10:02 | 32.72054 | -8.94846 | 38064 ft | 503 kts | 43° |
| 2026-04-23 10:02 | 32.76935 | -8.88893 | 38062 ft | 502 kts | 43° |
| 2026-04-23 10:03 | 32.81805 | -8.82949 | 38065 ft | 502 kts | 43° |
| 2026-04-23 10:03 | 32.86669 | -8.77000 | 38063 ft | 501 kts | 43° |
| 2026-04-23 10:04 | 32.91500 | -8.71093 | 38064 ft | 501 kts | 43° |
| 2026-04-23 10:04 | 32.96354 | -8.65148 | 38064 ft | 501 kts | 44° |
| 2026-04-23 10:05 | 33.01209 | -8.59200 | 38067 ft | 500 kts | 44° |
| 2026-04-23 10:05 | 33.06051 | -8.53249 | 38072 ft | 500 kts | 44° |
| 2026-04-23 10:06 | 33.10881 | -8.47293 | 38077 ft | 499 kts | 44° |
| 2026-04-23 10:06 | 33.15696 | -8.41331 | 38081 ft | 498 kts | 44° |
| 2026-04-23 10:07 | 33.19841 | -8.36588 | 38079 ft | 495 kts | 35° |
| 2026-04-23 10:07 | 33.25557 | -8.32097 | 38074 ft | 491 kts | 29° |
| 2026-04-23 10:08 | 33.31330 | -8.27750 | 38074 ft | 490 kts | 29° |
| 2026-04-23 10:08 | 33.37096 | -8.23405 | 38073 ft | 490 kts | 29° |
| 2026-04-23 10:09 | 33.45728 | -8.16883 | 38080 ft | 489 kts | 29° |
| 2026-04-23 10:09 | 33.51469 | -8.12530 | 38075 ft | 488 kts | 30° |
| 2026-04-23 10:10 | 33.57204 | -8.08178 | 38080 ft | 487 kts | 30° |
| 2026-04-23 10:10 | 33.62928 | -8.03831 | 38077 ft | 487 kts | 30° |
| 2026-04-23 10:11 | 33.68647 | -7.99487 | 38079 ft | 486 kts | 30° |
| 2026-04-23 10:11 | 33.74357 | -7.95144 | 38074 ft | 486 kts | 30° |
| 2026-04-23 10:12 | 33.80060 | -7.90792 | 38073 ft | 485 kts | 30° |
| 2026-04-23 10:12 | 33.85718 | -7.86467 | 38071 ft | 485 kts | 30° |
| 2026-04-23 10:13 | 33.91415 | -7.82112 | 38070 ft | 485 kts | 30° |
| 2026-04-23 10:13 | 33.97105 | -7.77748 | 38068 ft | 485 kts | 30° |
| 2026-04-23 10:14 | 34.02789 | -7.73376 | 38069 ft | 485 kts | 30° |
| 2026-04-23 10:14 | 34.08473 | -7.68999 | 38072 ft | 485 kts | 30° |
| 2026-04-23 10:15 | 34.14151 | -7.64617 | 38071 ft | 484 kts | 30° |
| 2026-04-23 10:15 | 34.19831 | -7.60238 | 38070 ft | 484 kts | 30° |
| 2026-04-23 10:16 | 34.25511 | -7.55861 | 38069 ft | 484 kts | 30° |
| 2026-04-23 10:16 | 34.29305 | -7.52929 | 38069 ft | 484 kts | 30° |
| 2026-04-23 10:17 | 34.34145 | -7.49178 | 38072 ft | 484 kts | 31° |
| 2026-04-23 10:17 | 34.39809 | -7.44781 | 38071 ft | 484 kts | 31° |
| 2026-04-23 10:18 | 34.45473 | -7.40376 | 38066 ft | 483 kts | 31° |
| 2026-04-23 10:18 | 34.51127 | -7.35965 | 38058 ft | 483 kts | 31° |
| 2026-04-23 10:19 | 34.56740 | -7.31578 | 38054 ft | 483 kts | 31° |
| 2026-04-23 10:19 | 34.62392 | -7.27162 | 38053 ft | 483 kts | 31° |
| 2026-04-23 10:20 | 34.68054 | -7.22736 | 38054 ft | 483 kts | 31° |
| 2026-04-23 10:20 | 34.73700 | -7.18313 | 38054 ft | 483 kts | 31° |
| 2026-04-23 10:21 | 34.79348 | -7.13885 | 38053 ft | 483 kts | 31° |
| 2026-04-23 10:21 | 34.84984 | -7.09441 | 38052 ft | 483 kts | 31° |
| 2026-04-23 10:22 | 34.90620 | -7.04997 | 38054 ft | 482 kts | 31° |
| 2026-04-23 10:22 | 34.96256 | -7.00561 | 38055 ft | 482 kts | 31° |
| 2026-04-23 10:23 | 35.01881 | -6.96118 | 38051 ft | 482 kts | 31° |
| 2026-04-23 10:23 | 35.07464 | -6.91692 | 38050 ft | 481 kts | 31° |
| 2026-04-23 10:24 | 35.13075 | -6.87247 | 38052 ft | 481 kts | 31° |
| 2026-04-23 10:24 | 35.18717 | -6.82758 | 38052 ft | 480 kts | 32° |
| 2026-04-23 10:25 | 35.24319 | -6.78294 | 38050 ft | 480 kts | 32° |
| 2026-04-23 10:25 | 35.29882 | -6.73862 | 38052 ft | 480 kts | 32° |
| 2026-04-23 10:26 | 35.35477 | -6.69401 | 38055 ft | 480 kts | 31° |
| 2026-04-23 10:26 | 35.41111 | -6.65024 | 38056 ft | 479 kts | 30° |
| 2026-04-23 10:27 | 35.46776 | -6.60715 | 38056 ft | 479 kts | 30° |
| 2026-04-23 10:27 | 35.52425 | -6.56386 | 38056 ft | 478 kts | 31° |
| 2026-04-23 10:28 | 35.58051 | -6.52030 | 38058 ft | 478 kts | 31° |
| 2026-04-23 10:28 | 35.60859 | -6.49850 | 37945 ft | 478 kts | 31° |
| 2026-04-23 10:28 | 35.63664 | -6.47674 | 37693 ft | 476 kts | 31° |
| 2026-04-23 10:29 | 35.66462 | -6.45507 | 37441 ft | 474 kts | 31° |
| 2026-04-23 10:29 | 35.69251 | -6.43346 | 37155 ft | 474 kts | 31° |
| 2026-04-23 10:29 | 35.72044 | -6.41181 | 36389 ft | 478 kts | 31° |
| 2026-04-23 10:29 | 35.74871 | -6.38987 | 35601 ft | 482 kts | 32° |
| 2026-04-23 10:30 | 35.77720 | -6.36772 | 34764 ft | 486 kts | 32° |
| 2026-04-23 10:30 | 35.80593 | -6.34535 | 33951 ft | 489 kts | 32° |
| 2026-04-23 10:30 | 35.83444 | -6.32310 | 33486 ft | 483 kts | 33° |
| 2026-04-23 10:30 | 35.86252 | -6.30049 | 32927 ft | 480 kts | 34° |
| 2026-04-23 10:31 | 35.88963 | -6.27762 | 32396 ft | 476 kts | 35° |
| 2026-04-23 10:31 | 35.91700 | -6.25385 | 31835 ft | 473 kts | 36° |
| 2026-04-23 10:31 | 35.94328 | -6.23078 | 31299 ft | 469 kts | 36° |
| 2026-04-23 10:31 | 35.96980 | -6.20754 | 30756 ft | 466 kts | 36° |
| 2026-04-23 10:32 | 35.99618 | -6.18459 | 30216 ft | 462 kts | 36° |
| 2026-04-23 10:32 | 36.02240 | -6.16195 | 29686 ft | 458 kts | 36° |
| 2026-04-23 10:32 | 36.04838 | -6.13965 | 29158 ft | 454 kts | 36° |
| 2026-04-23 10:32 | 36.07424 | -6.11755 | 28634 ft | 450 kts | 36° |
| 2026-04-23 10:33 | 36.09986 | -6.09565 | 28116 ft | 445 kts | 36° |
| 2026-04-23 10:33 | 36.12517 | -6.07395 | 27618 ft | 441 kts | 36° |
| 2026-04-23 10:33 | 36.15026 | -6.05236 | 27127 ft | 437 kts | 36° |
| 2026-04-23 10:33 | 36.17508 | -6.03096 | 26657 ft | 432 kts | 36° |
| 2026-04-23 10:34 | 36.19967 | -6.00976 | 26193 ft | 429 kts | 36° |
| 2026-04-23 10:34 | 36.22417 | -5.98901 | 25756 ft | 425 kts | 33° |
| 2026-04-23 10:34 | 36.25030 | -5.97234 | 25299 ft | 423 kts | 22° |
| 2026-04-23 10:34 | 36.27809 | -5.96087 | 24870 ft | 419 kts | 17° |
| 2026-04-23 10:35 | 36.30594 | -5.95051 | 24437 ft | 416 kts | 17° |
| 2026-04-23 10:35 | 36.33354 | -5.94015 | 23995 ft | 412 kts | 17° |
| 2026-04-23 10:35 | 36.36084 | -5.92984 | 23551 ft | 409 kts | 17° |
| 2026-04-23 10:35 | 36.38765 | -5.91965 | 23117 ft | 406 kts | 18° |
| 2026-04-23 10:36 | 36.41488 | -5.90930 | 22657 ft | 403 kts | 18° |
| 2026-04-23 10:36 | 36.44127 | -5.89930 | 22213 ft | 400 kts | 18° |
| 2026-04-23 10:36 | 36.46781 | -5.88924 | 21740 ft | 397 kts | 18° |
| 2026-04-23 10:36 | 36.49422 | -5.87924 | 21275 ft | 394 kts | 18° |
| 2026-04-23 10:37 | 36.52035 | -5.86935 | 20792 ft | 391 kts | 18° |
| 2026-04-23 10:37 | 36.54632 | -5.85951 | 20326 ft | 389 kts | 18° |
| 2026-04-23 10:37 | 36.57211 | -5.84972 | 19847 ft | 386 kts | 18° |
| 2026-04-23 10:37 | 36.59772 | -5.83996 | 19371 ft | 384 kts | 18° |
| 2026-04-23 10:38 | 36.62319 | -5.83023 | 18899 ft | 381 kts | 18° |
| 2026-04-23 10:38 | 36.64852 | -5.82061 | 18428 ft | 379 kts | 18° |
| 2026-04-23 10:38 | 36.67366 | -5.81107 | 17959 ft | 377 kts | 18° |
| 2026-04-23 10:38 | 36.69863 | -5.80159 | 17489 ft | 374 kts | 18° |
| 2026-04-23 10:39 | 36.72345 | -5.79215 | 17021 ft | 371 kts | 18° |
| 2026-04-23 10:39 | 36.74809 | -5.78277 | 16555 ft | 369 kts | 18° |
| 2026-04-23 10:39 | 36.77259 | -5.77341 | 16098 ft | 367 kts | 18° |
| 2026-04-23 10:39 | 36.79691 | -5.76409 | 15633 ft | 365 kts | 18° |
| 2026-04-23 10:40 | 36.82115 | -5.75481 | 15166 ft | 363 kts | 18° |
| 2026-04-23 10:40 | 36.84524 | -5.74563 | 14706 ft | 361 kts | 18° |
| 2026-04-23 10:40 | 36.86924 | -5.73646 | 14247 ft | 360 kts | 18° |
| 2026-04-23 10:40 | 36.89312 | -5.72733 | 13774 ft | 359 kts | 18° |
| 2026-04-23 10:41 | 36.91658 | -5.71835 | 13322 ft | 357 kts | 18° |
| 2026-04-23 10:41 | 36.94028 | -5.70927 | 12868 ft | 355 kts | 18° |
| 2026-04-23 10:41 | 36.96389 | -5.70020 | 12409 ft | 354 kts | 18° |
| 2026-04-23 10:41 | 36.98732 | -5.69117 | 11958 ft | 352 kts | 18° |
| 2026-04-23 10:42 | 37.01063 | -5.68218 | 11513 ft | 350 kts | 18° |
| 2026-04-23 10:42 | 37.03386 | -5.67324 | 11073 ft | 348 kts | 18° |
| 2026-04-23 10:42 | 37.05697 | -5.66434 | 10618 ft | 347 kts | 18° |
| 2026-04-23 10:42 | 37.08003 | -5.65548 | 10212 ft | 345 kts | 18° |
| 2026-04-23 10:43 | 37.10256 | -5.64684 | 10086 ft | 333 kts | 18° |
| 2026-04-23 10:43 | 37.12433 | -5.63850 | 9975 ft | 321 kts | 18° |
| 2026-04-23 10:43 | 37.14548 | -5.63036 | 9734 ft | 316 kts | 18° |
| 2026-04-23 10:43 | 37.16643 | -5.62230 | 9376 ft | 315 kts | 17° |
| 2026-04-23 10:44 | 37.18801 | -5.61791 | 9029 ft | 314 kts | 4° |
| 2026-04-23 10:44 | 37.20959 | -5.61644 | 8401 ft | 310 kts | 4° |
| 2026-04-23 10:44 | 37.23108 | -5.61497 | 7753 ft | 308 kts | 4° |
| 2026-04-23 10:44 | 37.25234 | -5.61352 | 7173 ft | 304 kts | 4° |
| 2026-04-23 10:45 | 37.27330 | -5.61207 | 6592 ft | 299 kts | 4° |
| 2026-04-23 10:45 | 37.29392 | -5.61065 | 5996 ft | 295 kts | 4° |
| 2026-04-23 10:45 | 37.31432 | -5.60925 | 5400 ft | 292 kts | 4° |
| 2026-04-23 10:45 | 37.33446 | -5.60787 | 4857 ft | 287 kts | 4° |
| 2026-04-23 10:46 | 37.35426 | -5.60651 | 4226 ft | 286 kts | 4° |
| 2026-04-23 10:46 | 37.37425 | -5.60536 | 3840 ft | 285 kts | 359° |
| 2026-04-23 10:46 | 37.39293 | -5.61065 | 3669 ft | 268 kts | 334° |
| 2026-04-23 10:46 | 37.40726 | -5.62417 | 3527 ft | 251 kts | 310° |
| 2026-04-23 10:47 | 37.41580 | -5.64227 | 3375 ft | 233 kts | 288° |
| 2026-04-23 10:47 | 37.41842 | -5.66141 | 3282 ft | 215 kts | 269° |
| 2026-04-23 10:47 | 37.41838 | -5.68000 | 3097 ft | 211 kts | 269° |
| 2026-04-23 10:47 | 37.41836 | -5.69851 | 2834 ft | 212 kts | 269° |
| 2026-04-23 10:48 | 37.41834 | -5.71670 | 2576 ft | 203 kts | 269° |
| 2026-04-23 10:48 | 37.41832 | -5.73398 | 2299 ft | 190 kts | 269° |
| 2026-04-23 10:48 | 37.41829 | -5.74997 | 2050 ft | 176 kts | 269° |
| 2026-04-23 10:48 | 37.41827 | -5.76474 | 1829 ft | 161 kts | 269° |
| 2026-04-23 10:49 | 37.41824 | -5.77816 | 1629 ft | 147 kts | 269° |
| 2026-04-23 10:49 | 37.41822 | -5.79073 | 1436 ft | 142 kts | 269° |
| 2026-04-23 10:49 | 37.41818 | -5.80285 | 1258 ft | 139 kts | 268° |
| 2026-04-23 10:49 | 37.41813 | -5.81513 | 1075 ft | 138 kts | 268° |
| 2026-04-23 10:50 | 37.41806 | -5.82722 | 895 ft | 138 kts | 268° |
| 2026-04-23 10:50 | 37.41798 | -5.83929 | 714 ft | 138 kts | 269° |
| 2026-04-23 10:50 | 37.41812 | -5.85119 | 540 ft | 138 kts | 270° |
| 2026-04-23 10:50 | 37.41813 | -5.86343 | 354 ft | 138 kts | 268° |
| 2026-04-23 10:51 | 37.41796 | -5.87527 | 155 ft | 137 kts | 269° |
| 2026-04-23 10:51 | 37.41799 | -5.88666 | 105 ft | 115 kts | 269° |
| 2026-04-23 10:51 | 37.41792 | -5.89452 | 101 ft | 65 kts | 270° |
| 2026-04-23 10:51 | 37.41809 | -5.89758 | 101 ft | 24 kts | 301° |
| 2026-04-23 10:52 | 37.41900 | -5.89832 | 99 ft | 10 kts | 338° |
| 2026-04-23 10:52 | 37.41979 | -5.89873 | 98 ft | 14 kts | 337° |
| 2026-04-23 10:52 | 37.42021 | -5.89895 | 95 ft | 5 kts | 337° |
| 2026-04-23 10:52 | 37.42069 | -5.89921 | 97 ft | 10 kts | 337° |
| 2026-04-23 10:53 | 37.42126 | -5.89925 | 94 ft | 9 kts | 25° |
| 2026-04-23 10:53 | 37.42183 | -5.89860 | 96 ft | 12 kts | 45° |
| 2026-04-23 10:53 | 37.42246 | -5.89789 | 94 ft | 10 kts | 13° |
| 2026-04-23 10:53 | 37.42294 | -5.89832 | 93 ft | 0 kts | 314° |
| 2026-04-23 10:54 | 37.42298 | -5.89836 | 94 ft | 1 kts | 315° |
| 2026-04-23 10:54 | 37.42303 | -5.89842 | 94 ft | 0 kts | 315° |